Time;durP1;ratioP1;P1;durP2;ratioP2;P2;SDS_P1;SDS_P2;PMS_P1;PMS_P2;Temp;Humidity;BMP_temperature;BMP_pressure;BME280_temperature;BME280_humidity;BME280_pressure;Samples;Min_cycle;Max_cycle;Signal;HPM_P1;HPM_P2
2021/06/23 00:00:28;;;;;;;;;;;;;;;17.41;100.00;99260.81;5055845;28;20684;-85
2021/06/23 00:02:54;;;;;;;;;;;;;;;16.08;100.00;99268.72;5038434;28;19924;-85
2021/06/23 00:05:21;;;;;;;;;;;;;;;16.67;100.00;99267.38;5038617;28;20260;-85
2021/06/23 00:07:46;;;;;;;;;;;;;;;16.84;100.00;99265.69;5037506;28;20049;-85
2021/06/23 00:10:13;;;;;;;;;;;;;;;17.00;100.00;99261.31;5038030;28;20804;-85
2021/06/23 00:12:39;;;;;;;;;;;;;;;16.53;100.00;99272.44;5054896;28;19938;-86
2021/06/23 00:15:04;;;;;;;;;;;;;;;17.05;100.00;99280.13;5038556;28;20004;-85
2021/06/23 00:17:30;;;;;;;;;;;;;;;17.41;100.00;99276.44;5037628;28;19924;-85
2021/06/23 00:19:55;;;;;;;;;;;;;;;17.43;100.00;99284.16;5054650;28;19924;-86
2021/06/23 00:22:21;;;;;;;;;;;;;;;16.39;100.00;99290.53;5055500;28;19928;-86
2021/06/23 00:24:46;;;;;;;;;;;;;;;16.89;100.00;99287.06;5038449;28;19924;-86
2021/06/23 00:27:12;;;;;;;;;;;;;;;17.02;100.00;99293.31;5037974;28;19956;-87
2021/06/23 00:29:37;;;;;;;;;;;;;;;16.67;100.00;99293.41;5054973;28;20258;-85
2021/06/23 00:32:03;;;;;;;;;;;;;;;17.35;100.00;99303.63;5054876;28;19931;-86
2021/06/23 00:34:28;;;;;;;;;;;;;;;17.01;100.00;99304.63;5054826;28;19990;-86
2021/06/23 00:36:54;;;;;;;;;;;;;;;17.28;100.00;99301.47;5054675;28;19978;-85
2021/06/23 00:39:19;;;;;;;;;;;;;;;16.53;100.00;99306.25;5038199;28;19974;-86
2021/06/23 00:41:44;;;;;;;;;;;;;;;16.56;100.00;99303.50;5054107;28;20432;-86
2021/06/23 00:44:10;;;;;;;;;;;;;;;16.18;100.00;99297.66;5041284;28;20356;-85
2021/06/23 00:46:36;;;;;;;;;;;;;;;15.92;100.00;99301.53;5057518;28;19935;-85
2021/06/23 00:49:01;;;;;;;;;;;;;;;16.44;100.00;99296.31;5058731;28;19923;-85
2021/06/23 00:51:27;;;;;;;;;;;;;;;16.39;100.00;99306.13;5040406;28;19996;-85
2021/06/23 00:53:52;;;;;;;;;;;;;;;15.83;100.00;99308.88;5041937;28;19924;-84
2021/06/23 00:56:18;;;;;;;;;;;;;;;16.08;100.00;99307.69;5056960;28;19984;-84
2021/06/23 00:58:45;;;;;;;;;;;;;;;15.60;100.00;99301.31;5057838;28;20398;-85
2021/06/23 01:01:10;;;;;;;;;;;;;;;15.33;100.00;99300.88;5040372;28;20039;-86
2021/06/23 01:03:36;;;;;;;;;;;;;;;15.36;100.00;99300.72;5040181;28;19950;-85
2021/06/23 01:06:01;;;;;;;;;;;;;;;15.31;100.00;99295.75;5041879;28;20577;-85
2021/06/23 01:08:26;;;;;;;;;;;;;;;15.40;100.00;99300.50;5058138;28;19920;-85
2021/06/23 01:10:52;;;;;;;;;;;;;;;15.45;100.00;99298.53;5057630;28;19959;-86
2021/06/23 01:13:36;;;;;;;;;;;;;;;15.51;100.00;99293.97;5041731;28;20034;-86
2021/06/23 01:16:03;;;;;;;;;;;;;;;15.45;100.00;99298.53;5057345;28;19928;-85
2021/06/23 01:18:29;;;;;;;;;;;;;;;15.95;100.00;99297.03;5057038;28;19974;-85
2021/06/23 01:20:54;;;;;;;;;;;;;;;15.75;100.00;99305.81;5041107;28;20018;-85
2021/06/23 01:23:19;;;;;;;;;;;;;;;16.07;100.00;99305.97;5040529;28;19927;-85
2021/06/23 01:25:47;;;;;;;;;;;;;;;16.70;100.00;99301.03;5040529;28;19947;-85
2021/06/23 01:28:12;;;;;;;;;;;;;;;15.78;100.00;99303.09;5057274;28;20435;-85
2021/06/23 01:30:38;;;;;;;;;;;;;;;16.91;100.00;99313.84;5045895;28;19977;-85
2021/06/23 01:33:05;;;;;;;;;;;;;;;17.09;100.00;99306.84;5056547;28;20019;-85
2021/06/23 01:35:30;;;;;;;;;;;;;;;15.92;100.00;99322.31;5057627;28;19974;-85
2021/06/23 01:37:56;;;;;;;;;;;;;;;16.49;100.00;99318.59;5057978;28;20003;-86
2021/06/23 01:40:22;;;;;;;;;;;;;;;15.55;100.00;99329.25;5040480;28;20012;-85
2021/06/23 01:42:48;;;;;;;;;;;;;;;15.81;100.00;99321.09;5058134;28;20012;-85
2021/06/23 01:45:14;;;;;;;;;;;;;;;16.00;100.00;99320.19;5040299;28;20023;-85
2021/06/23 01:47:39;;;;;;;;;;;;;;;16.04;100.00;99321.75;5041531;28;19927;-86
2021/06/23 01:50:05;;;;;;;;;;;;;;;15.78;100.00;99323.84;5040272;28;20000;-84
2021/06/23 01:52:30;;;;;;;;;;;;;;;15.44;100.00;99324.56;5075670;28;19931;-85
2021/06/23 01:54:55;;;;;;;;;;;;;;;16.59;100.00;99312.91;5056935;28;19954;-85
2021/06/23 01:57:21;;;;;;;;;;;;;;;16.27;100.00;99305.81;5041051;28;19928;-85
2021/06/23 01:59:46;;;;;;;;;;;;;;;16.28;100.00;99310.13;5040253;28;19924;-86
2021/06/23 02:02:18;;;;;;;;;;;;;;;15.81;100.00;99315.91;5038264;28;20387;-85
2021/06/23 02:04:43;;;;;;;;;;;;;;;16.25;100.00;99319.81;5057607;28;19970;-85
2021/06/23 02:07:27;;;;;;;;;;;;;;;16.42;100.00;99316.34;5056216;28;20953;-85
2021/06/23 02:10:00;;;;;;;;;;;;;;;16.02;100.00;99315.78;5075531;28;19931;-85
2021/06/23 02:12:25;;;;;;;;;;;;;;;15.92;100.00;99311.94;5039744;28;19924;-85
2021/06/23 02:14:51;;;;;;;;;;;;;;;16.42;100.00;99306.81;5056755;28;19931;-85
2021/06/23 02:17:16;;;;;;;;;;;;;;;16.01;100.00;99316.66;5073262;28;20010;-85
2021/06/23 02:19:42;;;;;;;;;;;;;;;16.51;100.00;99318.50;5055939;28;19939;-85
2021/06/23 02:22:18;;;;;;;;;;;;;;;15.54;100.00;99332.78;5039542;28;19924;-84
2021/06/23 02:24:44;;;;;;;;;;;;;;;15.35;100.00;99338.81;5040103;28;19970;-85
2021/06/23 02:27:10;;;;;;;;;;;;;;;16.15;100.00;99340.25;5056843;28;20027;-85
2021/06/23 02:29:35;;;;;;;;;;;;;;;16.05;100.00;99344.19;5035820;28;20451;-86
2021/06/23 02:32:01;;;;;;;;;;;;;;;15.76;100.00;99340.41;5036037;28;20567;-85
2021/06/23 02:34:26;;;;;;;;;;;;;;;15.66;100.00;99347.75;5035789;28;19939;-85
2021/06/23 02:36:51;;;;;;;;;;;;;;;15.39;100.00;99342.94;5053054;28;19924;-85
2021/06/23 02:39:17;;;;;;;;;;;;;;;14.49;100.00;99342.59;5052911;28;19924;-85
2021/06/23 02:41:42;;;;;;;;;;;;;;;15.30;100.00;99335.56;5053399;28;19979;-86
2021/06/23 02:44:07;;;;;;;;;;;;;;;15.46;100.00;99336.56;5036741;28;19931;-86
2021/06/23 02:46:33;;;;;;;;;;;;;;;15.03;100.00;99338.53;5037493;28;19924;-85
2021/06/23 02:48:58;;;;;;;;;;;;;;;15.01;100.00;99342.94;5037034;28;19924;-86
2021/06/23 02:51:24;;;;;;;;;;;;;;;15.69;100.00;99332.03;5051873;28;20035;-85
2021/06/23 02:53:50;;;;;;;;;;;;;;;15.28;100.00;99324.44;5053138;28;19925;-86
2021/06/23 02:56:16;;;;;;;;;;;;;;;14.69;100.00;99320.16;5035408;28;19928;-86
2021/06/23 02:58:42;;;;;;;;;;;;;;;15.13;100.00;99327.75;5036073;28;20666;-86
2021/06/23 03:01:07;;;;;;;;;;;;;;;15.92;100.00;99325.78;5052347;28;19925;-84
2021/06/23 03:03:33;;;;;;;;;;;;;;;16.04;100.00;99326.94;5035321;28;19932;-86
2021/06/23 03:06:02;;;;;;;;;;;;;;;15.55;100.00;99334.44;5033590;28;20055;-86
2021/06/23 03:08:28;;;;;;;;;;;;;;;15.81;100.00;99334.09;5035101;28;19928;-86
2021/06/23 03:10:54;;;;;;;;;;;;;;;15.31;100.00;99339.88;5035693;28;19924;-86
2021/06/23 03:13:19;;;;;;;;;;;;;;;15.54;100.00;99343.16;5035240;28;20880;-86
2021/06/23 03:15:44;;;;;;;;;;;;;;;15.40;100.00;99336.84;5035344;28;19924;-86
2021/06/23 03:18:10;;;;;;;;;;;;;;;14.62;100.00;99343.78;5034573;28;19959;-86
2021/06/23 03:20:35;;;;;;;;;;;;;;;14.89;100.00;99340.88;5035328;28;20695;-86
2021/06/23 03:23:00;;;;;;;;;;;;;;;15.20;100.00;99348.13;5034912;28;20281;-86
2021/06/23 03:25:26;;;;;;;;;;;;;;;15.51;100.00;99343.28;5051678;28;19975;-86
2021/06/23 03:27:53;;;;;;;;;;;;;;;14.97;100.00;99349.16;5039294;28;20406;-86
2021/06/23 03:30:18;;;;;;;;;;;;;;;14.67;100.00;99355.72;5037936;28;19930;-83
2021/06/23 03:32:44;;;;;;;;;;;;;;;15.54;100.00;99353.53;5038313;28;20114;-86
2021/06/23 03:35:11;;;;;;;;;;;;;;;15.98;100.00;99363.59;5040464;28;19946;-90
2021/06/23 03:37:36;;;;;;;;;;;;;;;15.54;100.00;99369.13;5041229;28;19929;-86
2021/06/23 03:40:02;;;;;;;;;;;;;;;14.92;100.00;99371.88;5056076;28;19931;-86
2021/06/23 03:42:28;;;;;;;;;;;;;;;15.66;100.00;99369.38;5039001;28;19923;-85
2021/06/23 03:44:53;;;;;;;;;;;;;;;15.44;100.00;99369.53;5037268;28;19924;-84
2021/06/23 03:47:18;;;;;;;;;;;;;;;15.89;100.00;99355.31;5054722;28;19931;-85
2021/06/23 03:49:44;;;;;;;;;;;;;;;15.47;100.00;99364.19;5055015;28;20023;-85
2021/06/23 03:52:09;;;;;;;;;;;;;;;15.42;100.00;99368.78;5037649;28;19924;-85
2021/06/23 03:54:34;;;;;;;;;;;;;;;15.55;100.00;99368.19;5054654;28;19974;-85
2021/06/23 03:57:00;;;;;;;;;;;;;;;16.39;100.00;99358.94;5053982;28;20794;-86
2021/06/23 03:59:25;;;;;;;;;;;;;;;16.13;100.00;99357.66;5054570;28;19924;-84
2021/06/23 04:01:50;;;;;;;;;;;;;;;15.32;100.00;99364.06;5053633;28;19951;-84
2021/06/23 04:04:16;;;;;;;;;;;;;;;15.55;100.00;99365.59;5053506;28;20375;-83
2021/06/23 04:06:41;;;;;;;;;;;;;;;15.73;100.00;99375.16;5054504;28;19971;-84
2021/06/23 04:09:06;;;;;;;;;;;;;;;15.86;100.00;99371.06;5050960;28;19928;-81
2021/06/23 04:11:32;;;;;;;;;;;;;;;16.31;100.00;99369.75;5072035;28;20300;-83
2021/06/23 04:13:57;;;;;;;;;;;;;;;16.41;100.00;99369.28;5072141;28;19924;-81
2021/06/23 04:16:22;;;;;;;;;;;;;;;15.97;100.00;99361.94;5072450;28;19924;-82
2021/06/23 04:18:48;;;;;;;;;;;;;;;16.36;100.00;99355.69;5058571;28;19959;-81
2021/06/23 04:21:13;;;;;;;;;;;;;;;16.90;100.00;99354.66;5078529;28;19982;-81
2021/06/23 04:23:38;;;;;;;;;;;;;;;17.01;100.00;99361.88;5043609;28;19950;-82
2021/06/23 04:26:04;;;;;;;;;;;;;;;16.59;100.00;99359.72;5060711;28;19946;-80
2021/06/23 04:28:29;;;;;;;;;;;;;;;16.84;100.00;99354.94;5058499;28;19927;-81
2021/06/23 04:30:54;;;;;;;;;;;;;;;16.89;100.00;99350.34;5042816;28;20038;-81
2021/06/23 04:33:20;;;;;;;;;;;;;;;16.34;100.00;99352.31;5042942;28;20058;-82
2021/06/23 04:35:47;;;;;;;;;;;;;;;16.29;100.00;99358.56;5043972;28;19931;-82
2021/06/23 04:38:13;;;;;;;;;;;;;;;16.93;100.00;99364.03;5058768;28;20449;-81
2021/06/23 04:40:40;;;;;;;;;;;;;;;16.85;100.00;99358.38;5044260;28;19916;-81
2021/06/23 04:43:05;;;;;;;;;;;;;;;16.64;100.00;99357.72;5061647;28;19986;-81
2021/06/23 04:45:30;;;;;;;;;;;;;;;16.88;100.00;99355.66;5061545;28;20728;-81
2021/06/23 04:47:56;;;;;;;;;;;;;;;17.15;100.00;99361.13;5078710;28;19929;-81
2021/06/23 04:50:21;;;;;;;;;;;;;;;16.77;100.00;99352.72;5078905;28;19972;-84
2021/06/23 04:52:46;;;;;;;;;;;;;;;15.23;100.00;99360.13;5060239;28;20859;-80
2021/06/23 04:55:16;;;;;;;;;;;;;;;16.12;100.00;99355.97;5060890;28;19920;-87
2021/06/23 04:57:42;;;;;;;;;;;;;;;16.47;100.00;99356.81;5045064;28;19932;-80
2021/06/23 05:00:07;;;;;;;;;;;;;;;16.85;100.00;99350.59;5043533;28;19985;-81
2021/06/23 05:02:32;;;;;;;;;;;;;;;16.72;100.00;99353.81;5075786;28;20225;-81
2021/06/23 05:04:58;;;;;;;;;;;;;;;16.07;100.00;99352.75;5060157;28;20278;-81
2021/06/23 05:07:23;;;;;;;;;;;;;;;15.78;100.00;99361.94;5075517;28;20438;-81
2021/06/23 05:09:49;;;;;;;;;;;;;;;15.35;100.00;99363.91;5042601;28;20011;-81
2021/06/23 05:12:16;;;;;;;;;;;;;;;15.14;100.00;99360.53;5077338;28;20334;-81
2021/06/23 05:14:42;;;;;;;;;;;;;;;15.57;100.00;99358.56;5061072;28;19935;-80
2021/06/23 05:17:07;;;;;;;;;;;;;;;16.23;100.00;99363.22;5077008;28;20376;-80
2021/06/23 05:19:34;;;;;;;;;;;;;;;15.72;100.00;99372.66;5061001;28;19920;-80
2021/06/23 05:22:01;;;;;;;;;;;;;;;15.96;100.00;99378.41;5043153;28;20369;-80
2021/06/23 05:24:26;;;;;;;;;;;;;;;15.68;100.00;99371.91;5044614;28;19965;-80
2021/06/23 05:26:51;;;;;;;;;;;;;;;15.82;100.00;99369.50;5058126;28;19924;-80
2021/06/23 05:29:17;;;;;;;;;;;;;;;16.19;100.00;99372.94;5057563;28;19984;-81
2021/06/23 05:31:42;;;;;;;;;;;;;;;15.86;100.00;99368.47;5056959;28;20020;-81
2021/06/23 05:34:08;;;;;;;;;;;;;;;16.72;100.00;99368.56;5075932;28;20959;-82
2021/06/23 05:36:33;;;;;;;;;;;;;;;17.01;100.00;99372.28;5074316;28;19959;-81
2021/06/23 05:38:58;;;;;;;;;;;;;;;16.54;100.00;99369.50;5075809;28;19966;-81
2021/06/23 05:41:24;;;;;;;;;;;;;;;16.31;100.00;99368.91;5057028;28;20185;-81
2021/06/23 05:43:49;;;;;;;;;;;;;;;16.47;100.00;99366.38;5075937;28;20474;-81
2021/06/23 05:46:14;;;;;;;;;;;;;;;15.54;100.00;99371.72;5075122;28;20541;-82
2021/06/23 05:48:39;;;;;;;;;;;;;;;15.79;100.00;99369.66;5075842;28;20087;-82
2021/06/23 05:51:05;;;;;;;;;;;;;;;16.86;100.00;99375.69;5075203;28;20559;-81
2021/06/23 05:53:31;;;;;;;;;;;;;;;15.98;100.00;99380.00;5048938;28;20228;-82
2021/06/23 05:55:56;;;;;;;;;;;;;;;15.92;100.00;99389.84;5056026;28;20330;-81
2021/06/23 05:58:22;;;;;;;;;;;;;;;16.44;100.00;99389.91;5057198;28;20187;-81
2021/06/23 06:00:47;;;;;;;;;;;;;;;15.57;100.00;99393.16;5074631;28;20623;-83
2021/06/23 06:03:13;;;;;;;;;;;;;;;15.67;100.00;99396.19;5057284;28;19923;-85
2021/06/23 06:05:38;;;;;;;;;;;;;;;15.15;100.00;99395.97;5039976;28;19920;-85
2021/06/23 06:08:03;;;;;;;;;;;;;;;15.53;100.00;99394.25;5039707;28;19916;-85
2021/06/23 06:10:29;;;;;;;;;;;;;;;15.73;100.00;99393.31;5053822;28;19931;-85
2021/06/23 06:12:54;;;;;;;;;;;;;;;16.08;100.00;99401.22;5057128;28;20299;-83
2021/06/23 06:15:19;;;;;;;;;;;;;;;16.01;100.00;99399.81;5055350;28;20778;-83
2021/06/23 06:17:45;;;;;;;;;;;;;;;15.94;100.00;99398.41;5039785;28;20264;-84
2021/06/23 06:20:11;;;;;;;;;;;;;;;16.83;100.00;99394.91;5040166;28;20218;-83
2021/06/23 06:22:36;;;;;;;;;;;;;;;16.95;100.00;99398.63;5057073;28;19927;-83
2021/06/23 06:25:02;;;;;;;;;;;;;;;15.99;100.00;99402.50;5038359;28;19920;-82
2021/06/23 06:27:27;;;;;;;;;;;;;;;17.27;100.00;99402.16;5040512;28;19915;-83
2021/06/23 06:29:53;;;;;;;;;;;;;;;17.18;100.00;99399.19;5074011;28;19990;-83
2021/06/23 06:32:18;;;;;;;;;;;;;;;18.11;100.00;99393.25;5039926;28;19920;-84
2021/06/23 06:34:43;;;;;;;;;;;;;;;17.63;100.00;99405.44;5053134;28;19927;-89
2021/06/23 06:37:09;;;;;;;;;;;;;;;17.10;100.00;99403.00;5040496;28;19947;-87
2021/06/23 06:39:34;;;;;;;;;;;;;;;16.35;100.00;99406.81;5040152;28;19920;-87
2021/06/23 06:41:59;;;;;;;;;;;;;;;17.56;100.00;99410.13;5040743;28;19966;-88
2021/06/23 06:44:29;;;;;;;;;;;;;;;17.38;100.00;99414.59;5039999;28;20685;-88
2021/06/23 06:46:54;;;;;;;;;;;;;;;16.81;100.00;99414.09;5057095;28;19920;-86
2021/06/23 06:49:20;;;;;;;;;;;;;;;16.59;100.00;99422.94;5039424;28;20402;-85
2021/06/23 06:51:45;;;;;;;;;;;;;;;17.13;100.00;99422.84;5039763;28;20221;-89
2021/06/23 06:54:10;;;;;;;;;;;;;;;17.88;100.00;99416.25;5039419;28;19923;-82
2021/06/23 06:56:35;;;;;;;;;;;;;;;18.01;100.00;99421.59;5055827;28;20205;-82
2021/06/23 06:59:01;;;;;;;;;;;;;;;17.93;100.00;99429.00;5038870;28;19924;-82
2021/06/23 07:01:26;;;;;;;;;;;;;;;18.42;100.00;99426.22;5054291;28;19920;-83
2021/06/23 07:03:51;;;;;;;;;;;;;;;18.07;100.00;99430.84;5055076;28;19926;-82
2021/06/23 07:06:17;;;;;;;;;;;;;;;17.08;100.00;99425.69;5037338;28;19943;-82
2021/06/23 07:08:42;;;;;;;;;;;;;;;17.85;100.00;99431.19;5055342;28;20083;-81
2021/06/23 07:11:07;;;;;;;;;;;;;;;18.29;100.00;99431.31;5054247;28;19926;-82
2021/06/23 07:13:33;;;;;;;;;;;;;;;17.23;100.00;99433.63;5056294;28;19943;-82
2021/06/23 07:15:58;;;;;;;;;;;;;;;16.50;100.00;99433.81;5038424;28;19927;-82
2021/06/23 07:18:24;;;;;;;;;;;;;;;16.99;100.00;99435.72;5038848;28;19924;-81
2021/06/23 07:20:49;;;;;;;;;;;;;;;17.91;100.00;99431.69;5038839;28;20089;-82
2021/06/23 07:23:14;;;;;;;;;;;;;;;17.61;100.00;99431.59;5074169;28;19920;-82
2021/06/23 07:25:40;;;;;;;;;;;;;;;18.06;100.00;99434.38;5054939;28;20032;-81
2021/06/23 07:28:05;;;;;;;;;;;;;;;18.06;100.00;99435.19;5069002;28;19924;-81
2021/06/23 07:30:33;;;;;;;;;;;;;;;18.11;100.00;99443.63;5034462;28;19963;-82
2021/06/23 07:33:03;;;;;;;;;;;;;;;16.25;100.00;99445.41;5035880;28;19970;-82
2021/06/23 07:38:15;;;;;;;;;;;;;;;17.97;100.00;99441.78;5037436;28;20029;-82
2021/06/23 07:40:51;;;;;;;;;;;;;;;16.87;100.00;99443.22;5035497;28;20357;-82
2021/06/23 07:43:17;;;;;;;;;;;;;;;17.39;100.00;99434.50;5019461;28;19920;-82
2021/06/23 07:45:46;;;;;;;;;;;;;;;17.78;100.00;99435.88;5036040;28;19943;-82
2021/06/23 07:48:12;;;;;;;;;;;;;;;17.78;100.00;99443.69;5035043;28;19925;-82
2021/06/23 07:51:28;;;;;;;;;;;;;;;19.20;100.00;99439.06;5034529;28;19927;-82
2021/06/23 07:53:35;;;;;;;;;;;;;;;18.87;100.00;99439.34;5039150;28;19978;-82
2021/06/23 08:09:33;;;;;;;;;;;;;;;17.62;100.00;99458.47;5053442;28;20379;-82
2021/06/23 08:14:38;;;;;;;;;;;;;;;18.29;100.00;99457.41;5052662;28;20221;-81
2021/06/23 08:17:04;;;;;;;;;;;;;;;17.82;100.00;99458.25;5050745;28;20379;-82
2021/06/23 08:19:29;;;;;;;;;;;;;;;18.67;100.00;99451.72;5033448;28;19974;-82
2021/06/23 08:21:54;;;;;;;;;;;;;;;19.40;100.00;99451.75;5052654;28;19924;-82
2021/06/23 08:24:20;;;;;;;;;;;;;;;18.23;100.00;99462.13;5016431;28;19928;-82
2021/06/23 08:26:45;;;;;;;;;;;;;;;17.71;100.00;99458.78;5034311;28;20023;-82
2021/06/23 08:29:10;;;;;;;;;;;;;;;17.70;100.00;99457.13;5035260;28;19998;-82
2021/06/23 08:31:36;;;;;;;;;;;;;;;18.28;100.00;99462.69;5034426;28;19927;-81
2021/06/23 08:34:01;;;;;;;;;;;;;;;18.73;100.00;99461.81;5032869;28;20256;-83
2021/06/23 08:36:26;;;;;;;;;;;;;;;18.29;100.00;99457.41;5051505;28;20254;-83
2021/06/23 08:38:52;;;;;;;;;;;;;;;18.70;100.00;99454.19;5033713;28;19920;-83
2021/06/23 08:41:17;;;;;;;;;;;;;;;18.10;100.00;99473.19;5017785;28;20418;-82
2021/06/23 08:43:43;;;;;;;;;;;;;;;18.75;100.00;99457.34;5034404;28;19924;-83
2021/06/23 08:46:08;;;;;;;;;;;;;;;19.45;100.00;99459.28;5035175;28;19978;-83
2021/06/23 08:48:33;;;;;;;;;;;;;;;17.75;100.00;99467.31;5017783;28;20023;-83
2021/06/23 08:51:04;;;;;;;;;;;;;;;17.89;100.00;99458.75;5052408;28;19924;-83
2021/06/23 08:53:29;;;;;;;;;;;;;;;17.59;100.00;99456.03;5018436;28;20047;-83
2021/06/23 08:55:55;;;;;;;;;;;;;;;18.09;100.00;99455.06;5033705;28;19985;-83
2021/06/23 08:58:20;;;;;;;;;;;;;;;18.97;100.00;99453.50;5035082;28;20228;-83
2021/06/23 09:00:45;;;;;;;;;;;;;;;18.20;100.00;99447.50;5033876;28;20240;-83
2021/06/23 09:03:11;;;;;;;;;;;;;;;18.25;100.00;99449.84;5034701;28;19924;-83
2021/06/23 09:05:50;;;;;;;;;;;;;;;19.53;100.00;99445.78;5019172;28;19927;-83
2021/06/23 09:08:35;;;;;;;;;;;;;;;20.17;100.00;99448.75;5021903;28;19959;-83
2021/06/23 09:11:01;;;;;;;;;;;;;;;18.76;100.00;99452.97;5038013;28;19921;-83
2021/06/23 09:13:27;;;;;;;;;;;;;;;18.58;100.00;99454.88;5038746;28;19927;-83
2021/06/23 09:15:53;;;;;;;;;;;;;;;19.17;100.00;99440.09;5020220;28;20179;-83
2021/06/23 09:18:20;;;;;;;;;;;;;;;18.35;100.00;99449.19;5036844;28;19990;-85
2021/06/23 09:20:46;;;;;;;;;;;;;;;19.21;100.00;99446.81;5020152;28;19917;-84
2021/06/23 09:23:11;;;;;;;;;;;;;;;19.02;100.00;99448.84;5020423;28;19924;-83
2021/06/23 09:25:38;;;;;;;;;;;;;;;21.42;100.00;99451.78;5037862;28;20276;-83
2021/06/23 09:28:05;;;;;;;;;;;;;;;20.11;97.36;99449.97;5022804;28;20012;-82
2021/06/23 09:30:34;;;;;;;;;;;;;;;20.64;99.10;99455.28;5016816;28;20200;-84
2021/06/23 09:33:13;;;;;;;;;;;;;;;18.59;100.00;99456.56;5034455;28;20388;-83
2021/06/23 09:35:39;;;;;;;;;;;;;;;19.76;100.00;99463.50;5034532;28;20293;-84
2021/06/23 09:38:04;;;;;;;;;;;;;;;20.27;97.21;99468.13;5033868;28;19925;-84
2021/06/23 09:40:31;;;;;;;;;;;;;;;20.30;100.00;99473.19;5034039;28;20058;-84
2021/06/23 09:43:00;;;;;;;;;;;;;;;19.30;95.89;99475.94;5016163;28;19920;-84
2021/06/23 09:45:26;;;;;;;;;;;;;;;19.67;98.15;99471.06;5034780;28;19978;-84
2021/06/23 09:47:59;;;;;;;;;;;;;;;20.89;93.21;99470.19;5034530;28;19925;-84
2021/06/23 09:50:25;;;;;;;;;;;;;;;20.40;93.45;99471.63;5034013;28;19931;-84
2021/06/23 09:52:58;;;;;;;;;;;;;;;21.54;92.32;99477.13;5033493;28;19925;-84
2021/06/23 09:55:33;;;;;;;;;;;;;;;20.81;95.74;99462.84;5034210;28;20015;-83
2021/06/23 09:58:06;;;;;;;;;;;;;;;20.82;100.00;99469.78;5033184;28;20398;-85
2021/06/23 10:00:33;;;;;;;;;;;;;;;19.85;100.00;99465.53;5033186;28;20385;-84
2021/06/23 10:03:03;;;;;;;;;;;;;;;21.24;94.17;99464.34;5033311;28;20039;-84
2021/06/23 10:05:29;;;;;;;;;;;;;;;21.01;88.47;99468.53;5033880;28;19952;-83
2021/06/23 10:07:54;;;;;;;;;;;;;;;20.79;99.65;99469.13;5034154;28;20011;-84
2021/06/23 10:10:23;;;;;;;;;;;;;;;20.89;92.08;99459.72;5033982;28;19921;-83
2021/06/23 10:12:50;;;;;;;;;;;;;;;19.17;97.45;99470.59;5016327;28;20296;-83
2021/06/23 10:15:15;;;;;;;;;;;;;;;20.11;87.16;99463.03;5016343;28;20171;-84
2021/06/23 10:17:41;;;;;;;;;;;;;;;20.01;91.34;99468.03;5034613;28;19928;-83
2021/06/23 10:20:07;;;;;;;;;;;;;;;19.91;97.86;99461.72;5033450;28;19925;-83
2021/06/23 10:22:32;;;;;;;;;;;;;;;20.97;90.65;99467.06;5018133;28;19921;-84
2021/06/23 10:24:57;;;;;;;;;;;;;;;21.65;88.62;99458.88;5016702;28;19920;-84
2021/06/23 10:27:23;;;;;;;;;;;;;;;21.05;89.14;99470.84;5017430;28;19930;-84
2021/06/23 10:29:53;;;;;;;;;;;;;;;21.14;90.68;99471.16;5017383;28;20630;-84
2021/06/23 10:32:19;;;;;;;;;;;;;;;21.72;80.43;99475.84;5034450;28;19970;-84
2021/06/23 10:34:44;;;;;;;;;;;;;;;20.82;85.08;99475.03;5017354;28;19920;-84
2021/06/23 10:37:09;;;;;;;;;;;;;;;20.05;99.08;99466.06;5033934;28;20298;-84
2021/06/23 10:39:35;;;;;;;;;;;;;;;20.81;89.21;99472.50;5016121;28;19960;-83
2021/06/23 10:42:02;;;;;;;;;;;;;;;20.14;95.42;99472.47;5034111;28;19920;-83
2021/06/23 10:44:35;;;;;;;;;;;;;;;22.41;87.98;99470.06;5032221;28;19988;-84
2021/06/23 10:47:01;;;;;;;;;;;;;;;20.33;87.23;99470.34;5033798;28;20511;-84
2021/06/23 10:49:53;;;;;;;;;;;;;;;20.16;84.40;99467.97;5016073;28;19955;-84
2021/06/23 10:52:21;;;;;;;;;;;;;;;19.67;92.07;99463.22;5030261;28;19921;-84
2021/06/23 10:54:48;;;;;;;;;;;;;;;21.13;87.26;99470.31;5033850;28;19925;-84
2021/06/23 10:57:23;;;;;;;;;;;;;;;20.50;91.39;99474.47;5016981;28;20011;-83
2021/06/23 10:59:49;;;;;;;;;;;;;;;20.96;92.14;99461.00;5032743;28;19925;-84
2021/06/23 11:02:14;;;;;;;;;;;;;;;20.57;85.91;99470.56;5032744;28;19920;-84
2021/06/23 11:05:01;;;;;;;;;;;;;;;21.55;83.74;99478.78;5032621;28;20212;-85
2021/06/23 11:07:33;;;;;;;;;;;;;;;21.87;85.38;99467.81;5032644;28;19920;-85
2021/06/23 11:10:10;;;;;;;;;;;;;;;21.25;86.41;99469.47;5033026;28;19921;-83
2021/06/23 11:12:56;;;;;;;;;;;;;;;21.68;78.69;99471.75;5033192;28;20115;-83
2021/06/23 11:15:22;;;;;;;;;;;;;;;20.59;90.39;99473.91;5032737;28;20026;-82
2021/06/23 11:17:49;;;;;;;;;;;;;;;21.34;88.32;99473.22;5032589;28;19921;-82
2021/06/23 11:20:21;;;;;;;;;;;;;;;22.42;81.45;99478.75;5015676;28;19925;-83
2021/06/23 11:22:47;;;;;;;;;;;;;;;22.93;77.96;99473.22;5031624;28;20372;-83
2021/06/23 11:25:31;;;;;;;;;;;;;;;22.47;78.06;99477.47;5015271;28;19987;-83
2021/06/23 11:28:16;;;;;;;;;;;;;;;21.98;79.50;99477.56;5017880;28;19929;-82
2021/06/23 11:30:44;;;;;;;;;;;;;;;20.76;87.55;99478.03;5035770;28;20335;-83
2021/06/23 11:33:28;;;;;;;;;;;;;;;20.53;81.45;99482.16;5053391;28;19916;-83
2021/06/23 11:36:00;;;;;;;;;;;;;;;20.85;84.04;99485.28;5053671;28;20261;-84
2021/06/23 11:38:26;;;;;;;;;;;;;;;21.11;84.35;99482.66;5035003;28;20359;-82
2021/06/23 11:40:52;;;;;;;;;;;;;;;20.81;89.31;99483.78;5036189;28;19925;-81
2021/06/23 11:43:17;;;;;;;;;;;;;;;21.32;85.97;99480.34;5018939;28;19921;-82
2021/06/23 11:45:43;;;;;;;;;;;;;;;21.53;90.24;99483.34;5018488;28;20491;-83
2021/06/23 11:48:09;;;;;;;;;;;;;;;21.64;81.24;99480.78;5017561;28;19920;-84
2021/06/23 11:50:34;;;;;;;;;;;;;;;21.39;78.74;99472.91;5017327;28;19928;-82
2021/06/23 11:53:00;;;;;;;;;;;;;;;21.18;85.94;99470.00;5016745;28;19971;-82
2021/06/23 11:55:28;;;;;;;;;;;;;;;21.30;77.25;99480.50;5034185;28;20557;-82
2021/06/23 11:57:54;;;;;;;;;;;;;;;21.09;81.67;99476.69;5034474;28;19983;-82
2021/06/23 12:00:20;;;;;;;;;;;;;;;21.85;90.16;99474.97;5034305;28;19971;-82
2021/06/23 12:02:46;;;;;;;;;;;;;;;21.31;83.15;99476.91;5052619;28;20924;-83
2021/06/23 12:05:11;;;;;;;;;;;;;;;19.74;88.35;99482.84;5017828;28;19994;-83
2021/06/23 12:07:37;;;;;;;;;;;;;;;20.04;97.69;99483.50;5016524;28;20012;-84
2021/06/23 12:10:03;;;;;;;;;;;;;;;21.66;80.65;99480.69;5034075;28;19939;-85
2021/06/23 12:12:29;;;;;;;;;;;;;;;21.74;90.96;99480.16;5018552;28;19931;-84
2021/06/23 12:14:54;;;;;;;;;;;;;;;20.44;88.76;99487.97;5017476;28;20372;-86
2021/06/23 12:17:20;;;;;;;;;;;;;;;20.27;86.97;99491.66;5016160;28;19924;-85
2021/06/23 12:19:46;;;;;;;;;;;;;;;21.27;85.25;99480.69;5033158;28;20043;-83
2021/06/23 12:22:13;;;;;;;;;;;;;;;21.28;77.40;99485.00;5031210;28;20345;-83
2021/06/23 12:24:38;;;;;;;;;;;;;;;20.08;90.90;99478.94;5047796;28;19920;-83
2021/06/23 12:27:04;;;;;;;;;;;;;;;19.56;91.89;99476.94;5032885;28;19974;-84
2021/06/23 12:30:03;;;;;;;;;;;;;;;20.78;91.51;99484.00;5014207;28;20174;-84
2021/06/23 12:32:28;;;;;;;;;;;;;;;19.53;91.84;99480.59;5024949;28;19925;-83
2021/06/23 12:34:54;;;;;;;;;;;;;;;20.81;92.47;99481.19;5010952;28;20429;-82
2021/06/23 12:37:19;;;;;;;;;;;;;;;20.21;88.41;99486.84;5029626;28;19952;-83
2021/06/23 12:39:45;;;;;;;;;;;;;;;20.28;87.44;99485.50;5014843;28;21065;-82
2021/06/23 12:42:10;;;;;;;;;;;;;;;20.19;92.45;99483.50;5017186;28;20039;-82
2021/06/23 12:44:36;;;;;;;;;;;;;;;21.42;86.12;99483.25;5033695;28;19983;-82
2021/06/23 12:47:02;;;;;;;;;;;;;;;21.58;83.56;99489.09;5035776;28;20339;-81
2021/06/23 12:49:28;;;;;;;;;;;;;;;20.60;87.58;99485.22;5036824;28;19932;-84
2021/06/23 12:51:53;;;;;;;;;;;;;;;21.05;87.24;99477.84;5035185;28;19925;-84
2021/06/23 12:54:18;;;;;;;;;;;;;;;20.72;84.71;99483.56;5034542;28;19981;-84
2021/06/23 12:56:45;;;;;;;;;;;;;;;21.34;82.54;99475.03;5035355;28;20027;-84